sensor_id;sensor_type;location;lat;lon;timestamp;P1;P2;P0
47711;PMS7003;57457;51.634;5.886;2023-03-23T00:08:09;3.73;5.02;2.3
47711;PMS7003;57457;51.634;5.886;2023-03-23T00:21:29;1.56;4.15;2.3
47711;PMS7003;57457;51.634;5.886;2023-03-23T00:34:51;1.8;4.59;2.41
47711;PMS7003;57457;51.634;5.886;2023-03-23T00:48:11;3.85;4.91;2.62
47711;PMS7003;57457;51.634;5.886;2023-03-23T01:01:32;1.68;4.8;2.52
47711;PMS7003;57457;51.634;5.886;2023-03-23T01:14:52;1.92;5.02;2.41
47711;PMS7003;57457;51.634;5.886;2023-03-23T01:41:33;1.8;4.8;2.62
47711;PMS7003;57457;51.634;5.886;2023-03-23T01:54:53;1.8;4.91;2.84
47711;PMS7003;57457;51.634;5.886;2023-03-23T02:21:35;1.92;4.8;2.73
47711;PMS7003;57457;51.634;5.886;2023-03-23T02:34:55;3.0;5.79;3.06
47711;PMS7003;57457;51.634;5.886;2023-03-23T02:48:16;3.6;5.13;2.62
47711;PMS7003;57457;51.634;5.886;2023-03-23T03:01:36;3.24;5.35;2.52
47711;PMS7003;57457;51.634;5.886;2023-03-23T03:14:56;2.28;5.02;2.73
47711;PMS7003;57457;51.634;5.886;2023-03-23T03:28:16;2.4;5.35;2.95
47711;PMS7003;57457;51.634;5.886;2023-03-23T03:41:36;3.12;5.9;2.95
47711;PMS7003;57457;51.634;5.886;2023-03-23T03:54:56;2.28;5.24;3.17
47711;PMS7003;57457;51.634;5.886;2023-03-23T04:08:18;3.24;6.0;2.62
47711;PMS7003;57457;51.634;5.886;2023-03-23T04:21:40;2.04;5.02;2.52
47711;PMS7003;57457;51.634;5.886;2023-03-23T04:35:00;3.85;4.26;2.08
47711;PMS7003;57457;51.634;5.886;2023-03-23T04:48:20;1.08;3.93;1.75
47711;PMS7003;57457;51.634;5.886;2023-03-23T05:01:40;0.24;3.5;1.64
47711;PMS7003;57457;51.634;5.886;2023-03-23T05:14:59;2.88;2.41;1.32
47711;PMS7003;57457;51.634;5.886;2023-03-23T05:28:21;0.01;2.08;1.32
47711;PMS7003;57457;51.634;5.886;2023-03-23T05:41:43;0.01;2.41;1.43
47711;PMS7003;57457;51.634;5.886;2023-03-23T05:55:03;1.56;3.06;1.54
47711;PMS7003;57457;51.634;5.886;2023-03-23T06:08:23;5.05;3.17;1.54
47711;PMS7003;57457;51.634;5.886;2023-03-23T06:21:43;2.52;3.61;1.86
47711;PMS7003;57457;51.634;5.886;2023-03-23T06:35:04;1.68;3.17;1.75
47711;PMS7003;57457;51.634;5.886;2023-03-23T06:48:26;3.0;4.04;1.75
47711;PMS7003;57457;51.634;5.886;2023-03-23T07:01:47;0.48;3.28;1.64
47711;PMS7003;57457;51.634;5.886;2023-03-23T07:15:08;0.6;3.17;1.75
47711;PMS7003;57457;51.634;5.886;2023-03-23T07:28:28;0.01;2.73;1.43
47711;PMS7003;57457;51.634;5.886;2023-03-23T07:41:50;3.48;2.84;1.43
47711;PMS7003;57457;51.634;5.886;2023-03-23T07:55:11;1.32;2.62;1.64
47711;PMS7003;57457;51.634;5.886;2023-03-23T08:08:33;0.01;1.54;
47711;PMS7003;57457;51.634;5.886;2023-03-23T08:21:54;0.01;1.32;
47711;PMS7003;57457;51.634;5.886;2023-03-23T08:35:16;0.01;1.54;
47711;PMS7003;57457;51.634;5.886;2023-03-23T08:48:36;0.84;2.08;1.21
47711;PMS7003;57457;51.634;5.886;2023-03-23T09:01:56;0.01;1.75;1.21
47711;PMS7003;57457;51.634;5.886;2023-03-23T09:15:17;0.01;1.32;
47711;PMS7003;57457;51.634;5.886;2023-03-23T09:28:37;0.01;1.32;
47711;PMS7003;57457;51.634;5.886;2023-03-23T09:41:58;0.01;2.95;1.32
47711;PMS7003;57457;51.634;5.886;2023-03-23T09:55:18;0.01;1.54;
47711;PMS7003;57457;51.634;5.886;2023-03-23T10:08:39;0.01;1.32;
47711;PMS7003;57457;51.634;5.886;2023-03-23T10:21:59;0.01;1.75;
47711;PMS7003;57457;51.634;5.886;2023-03-23T10:35:21;0.01;1.43;
47711;PMS7003;57457;51.634;5.886;2023-03-23T10:48:42;0.01;1.54;
47711;PMS7003;57457;51.634;5.886;2023-03-23T11:15:22;0.01;1.43;
47711;PMS7003;57457;51.634;5.886;2023-03-23T11:28:42;0.01;2.3;1.21
47711;PMS7003;57457;51.634;5.886;2023-03-23T11:42:03;0.01;1.64;
47711;PMS7003;57457;51.634;5.886;2023-03-23T11:55:25;0.01;1.64;
47711;PMS7003;57457;51.634;5.886;2023-03-23T12:08:45;0.01;1.54;
47711;PMS7003;57457;51.634;5.886;2023-03-23T12:48:49;0.01;2.08;1.21
47711;PMS7003;57457;51.634;5.886;2023-03-23T13:02:10;0.01;1.64;
47711;PMS7003;57457;51.634;5.886;2023-03-23T13:15:32;0.01;2.08;
47711;PMS7003;57457;51.634;5.886;2023-03-23T13:42:13;0.01;2.3;
47711;PMS7003;57457;51.634;5.886;2023-03-23T13:55:34;0.36;2.19;
47711;PMS7003;57457;51.634;5.886;2023-03-23T14:08:56;0.01;2.62;1.32
47711;PMS7003;57457;51.634;5.886;2023-03-23T14:22:17;0.01;2.19;1.21
47711;PMS7003;57457;51.634;5.886;2023-03-23T14:35:37;0.12;2.84;1.43
47711;PMS7003;57457;51.634;5.886;2023-03-23T14:48:57;0.6;3.39;1.75
47711;PMS7003;57457;51.634;5.886;2023-03-23T15:02:17;0.01;2.62;1.43
47711;PMS7003;57457;51.634;5.886;2023-03-23T15:15:39;0.01;2.62;1.32
47711;PMS7003;57457;51.634;5.886;2023-03-23T15:28:58;0.01;2.62;1.32
47711;PMS7003;57457;51.634;5.886;2023-03-23T15:55:40;1.32;3.17;1.64
47711;PMS7003;57457;51.634;5.886;2023-03-23T16:09:01;0.96;3.82;2.19
47711;PMS7003;57457;51.634;5.886;2023-03-23T16:22:22;0.72;3.71;2.3
47711;PMS7003;57457;51.634;5.886;2023-03-23T16:35:44;0.01;2.84;1.64
47711;PMS7003;57457;51.634;5.886;2023-03-23T16:49:05;0.24;2.62;1.54
47711;PMS7003;57457;51.634;5.886;2023-03-23T17:02:25;0.24;2.95;1.54
47711;PMS7003;57457;51.634;5.886;2023-03-23T17:15:45;0.84;3.82;1.86
47711;PMS7003;57457;51.634;5.886;2023-03-23T17:29:07;1.44;3.93;2.08
47711;PMS7003;57457;51.634;5.886;2023-03-23T17:42:28;0.96;3.93;1.64
47711;PMS7003;57457;51.634;5.886;2023-03-23T17:55:50;1.56;4.26;2.08
47711;PMS7003;57457;51.634;5.886;2023-03-23T18:09:10;2.76;4.48;2.3
47711;PMS7003;57457;51.634;5.886;2023-03-23T18:22:30;0.72;3.82;2.3
47711;PMS7003;57457;51.634;5.886;2023-03-23T18:35:51;1.32;4.15;2.3
47711;PMS7003;57457;51.634;5.886;2023-03-23T18:49:12;1.44;4.59;2.08
47711;PMS7003;57457;51.634;5.886;2023-03-23T19:02:33;4.57;3.61;1.86
47711;PMS7003;57457;51.634;5.886;2023-03-23T19:15:55;1.68;4.48;2.08
47711;PMS7003;57457;51.634;5.886;2023-03-23T19:29:15;1.68;4.15;2.19
47711;PMS7003;57457;51.634;5.886;2023-03-23T19:55:57;0.84;3.28;1.64
47711;PMS7003;57457;51.634;5.886;2023-03-23T20:09:18;0.24;3.17;1.43
47711;PMS7003;57457;51.634;5.886;2023-03-23T20:22:40;1.92;3.39;1.75
47711;PMS7003;57457;51.634;5.886;2023-03-23T20:36:00;3.6;3.5;1.64
47711;PMS7003;57457;51.634;5.886;2023-03-23T20:49:20;0.72;3.39;1.54
47711;PMS7003;57457;51.634;5.886;2023-03-23T21:02:40;0.96;3.93;1.75
47711;PMS7003;57457;51.634;5.886;2023-03-23T21:16:01;1.92;3.71;1.64
47711;PMS7003;57457;51.634;5.886;2023-03-23T21:29:21;0.48;3.61;1.64
47711;PMS7003;57457;51.634;5.886;2023-03-23T21:42:41;0.84;4.04;1.64
47711;PMS7003;57457;51.634;5.886;2023-03-23T21:56:01;0.36;3.28;1.43
47711;PMS7003;57457;51.634;5.886;2023-03-23T22:09:21;0.01;3.06;1.54
47711;PMS7003;57457;51.634;5.886;2023-03-23T22:22:41;1.44;2.84;1.32
47711;PMS7003;57457;51.634;5.886;2023-03-23T22:36:02;0.01;2.95;1.32
47711;PMS7003;57457;51.634;5.886;2023-03-23T22:49:23;1.92;2.95;1.54
47711;PMS7003;57457;51.634;5.886;2023-03-23T23:02:45;1.32;2.84;1.54
47711;PMS7003;57457;51.634;5.886;2023-03-23T23:16:04;0.48;3.5;1.54
47711;PMS7003;57457;51.634;5.886;2023-03-23T23:29:24;0.72;3.82;1.64
47711;PMS7003;57457;51.634;5.886;2023-03-23T23:42:46;4.69;3.93;1.86
47711;PMS7003;57457;51.634;5.886;2023-03-23T23:56:07;0.6;3.61;1.97
